LPP3167 SAZM-SABE
Flight info
| Callsign | LPP3167 |
|---|---|
| Flight time | 0h 32m |
| Altitude | 29000 |
| Route | PULPA1C PULPA DCT TENIL TENIL8R |
| Aircraft | B738/M-SDE2E3FGHIRWXY/LB1 |
Departure
| Time | 2026-04-21 20:12 |
|---|---|
| Airport | Ástor Piazzola International Airport (SAZM) |
Arrival
| Time | 2026-04-21 20:44 |
|---|---|
| Airport | Aeroparque Jorge Newbery (SABE) |
| Time | Latitude | Longitude | Altitude | Speed | Heading |
|---|---|---|---|---|---|
| 2026-04-21 19:47 | -37.93242 | -57.58087 | 64 ft | 0 kts | 319° |
| 2026-04-21 19:55 | -37.93259 | -57.58069 | 64 ft | 7 kts | 315° |
| 2026-04-21 19:55 | -37.93286 | -57.58033 | 64 ft | 1 kts | 320° |
| 2026-04-21 19:55 | -37.93296 | -57.58023 | 64 ft | 0 kts | 326° |
| 2026-04-21 20:03 | -37.93284 | -57.58031 | 64 ft | 5 kts | 332° |
| 2026-04-21 20:03 | -37.93248 | -57.58040 | 64 ft | 6 kts | 7° |
| 2026-04-21 20:04 | -37.93197 | -57.58011 | 64 ft | 7 kts | 31° |
| 2026-04-21 20:04 | -37.93194 | -57.58008 | 64 ft | 0 kts | 31° |
| 2026-04-21 20:09 | -37.93124 | -57.57964 | 63 ft | 16 kts | 2° |
| 2026-04-21 20:09 | -37.93047 | -57.58061 | 64 ft | 18 kts | 303° |
| 2026-04-21 20:10 | -37.92961 | -57.58231 | 65 ft | 24 kts | 303° |
| 2026-04-21 20:10 | -37.92910 | -57.58374 | 65 ft | 14 kts | 348° |
| 2026-04-21 20:10 | -37.92897 | -57.58355 | 66 ft | 0 kts | 122° |
| 2026-04-21 20:11 | -37.92910 | -57.58328 | 66 ft | 24 kts | 120° |
| 2026-04-21 20:11 | -37.93158 | -57.57843 | 61 ft | 103 kts | 123° |
| 2026-04-21 20:11 | -37.93680 | -57.56819 | 56 ft | 168 kts | 121° |
| 2026-04-21 20:12 | -37.94330 | -57.55524 | 670 ft | 181 kts | 118° |
| 2026-04-21 20:12 | -37.94945 | -57.54178 | 1565 ft | 183 kts | 116° |
| 2026-04-21 20:12 | -37.95341 | -57.53243 | 2095 ft | 182 kts | 109° |
| 2026-04-21 20:12 | -37.95393 | -57.51120 | 2767 ft | 193 kts | 71° |
| 2026-04-21 20:13 | -37.94723 | -57.49588 | 3269 ft | 205 kts | 53° |
| 2026-04-21 20:13 | -37.93615 | -57.48397 | 3733 ft | 222 kts | 27° |
| 2026-04-21 20:13 | -37.92030 | -57.48016 | 4338 ft | 240 kts | 3° |
| 2026-04-21 20:13 | -37.90360 | -57.48088 | 5140 ft | 245 kts | 0° |
| 2026-04-21 20:14 | -37.88649 | -57.48137 | 5825 ft | 253 kts | 2° |
| 2026-04-21 20:14 | -37.86860 | -57.48123 | 6562 ft | 259 kts | 2° |
| 2026-04-21 20:14 | -37.85061 | -57.48298 | 7342 ft | 264 kts | 349° |
| 2026-04-21 20:14 | -37.83332 | -57.48970 | 8214 ft | 264 kts | 341° |
| 2026-04-21 20:15 | -37.81603 | -57.49777 | 9067 ft | 264 kts | 342° |
| 2026-04-21 20:15 | -37.79865 | -57.50500 | 9833 ft | 267 kts | 344° |
| 2026-04-21 20:15 | -37.78072 | -57.51161 | 10538 ft | 271 kts | 345° |
| 2026-04-21 20:15 | -37.76238 | -57.51815 | 11049 ft | 283 kts | 345° |
| 2026-04-21 20:16 | -37.74300 | -57.52518 | 11576 ft | 295 kts | 344° |
| 2026-04-21 20:16 | -37.72286 | -57.53247 | 12022 ft | 308 kts | 344° |
| 2026-04-21 20:16 | -37.70189 | -57.54002 | 12464 ft | 320 kts | 344° |
| 2026-04-21 20:16 | -37.57549 | -57.58534 | 14934 ft | 332 kts | 343° |
| 2026-04-21 20:17 | -37.49892 | -57.61255 | 15895 ft | 346 kts | 342° |
| 2026-04-21 20:17 | -37.47555 | -57.62098 | 16220 ft | 358 kts | 342° |
| 2026-04-21 20:17 | -37.35786 | -57.66334 | 16998 ft | 375 kts | 342° |
| 2026-04-21 20:17 | -37.20467 | -57.71782 | 18319 ft | 388 kts | 342° |
| 2026-04-21 20:18 | -37.10138 | -57.75417 | 19200 ft | 396 kts | 342° |
| 2026-04-21 20:18 | -36.88488 | -57.83030 | 21043 ft | 411 kts | 341° |
| 2026-04-21 20:18 | -36.71659 | -57.88950 | 22244 ft | 422 kts | 341° |
| 2026-04-21 20:18 | -36.54445 | -57.94976 | 23533 ft | 432 kts | 341° |
| 2026-04-21 20:19 | -36.37060 | -58.01011 | 25162 ft | 440 kts | 340° |
| 2026-04-21 20:19 | -36.28989 | -58.03798 | 25599 ft | 447 kts | 340° |
| 2026-04-21 20:19 | -36.26010 | -58.04822 | 26315 ft | 442 kts | 340° |
| 2026-04-21 20:19 | -36.23042 | -58.05839 | 26970 ft | 439 kts | 340° |
| 2026-04-21 20:20 | -36.20080 | -58.06854 | 27628 ft | 436 kts | 340° |
| 2026-04-21 20:20 | -36.17160 | -58.07857 | 28122 ft | 436 kts | 339° |
| 2026-04-21 20:20 | -36.14265 | -58.08852 | 28647 ft | 434 kts | 339° |
| 2026-04-21 20:20 | -36.11311 | -58.09868 | 28952 ft | 437 kts | 339° |
| 2026-04-21 20:21 | -36.08379 | -58.10882 | 28952 ft | 445 kts | 339° |
| 2026-04-21 20:21 | -36.02356 | -58.13257 | 28972 ft | 456 kts | 335° |
| 2026-04-21 20:22 | -35.96421 | -58.16050 | 28967 ft | 448 kts | 333° |
| 2026-04-21 20:22 | -35.87648 | -58.20232 | 28967 ft | 452 kts | 334° |
| 2026-04-21 20:23 | -35.81760 | -58.22964 | 28971 ft | 452 kts | 334° |
| 2026-04-21 20:23 | -35.75869 | -58.25659 | 28972 ft | 451 kts | 334° |
| 2026-04-21 20:24 | -35.69936 | -58.28354 | 28974 ft | 453 kts | 335° |
| 2026-04-21 20:24 | -35.64007 | -58.31036 | 28971 ft | 451 kts | 335° |
| 2026-04-21 20:25 | -35.58083 | -58.33713 | 28974 ft | 453 kts | 335° |
| 2026-04-21 20:25 | -35.52133 | -58.36398 | 28974 ft | 453 kts | 335° |
| 2026-04-21 20:26 | -35.46099 | -58.38802 | 28977 ft | 458 kts | 341° |
| 2026-04-21 20:26 | -35.42985 | -58.39660 | 28742 ft | 456 kts | 343° |
| 2026-04-21 20:26 | -35.39882 | -58.40387 | 28228 ft | 451 kts | 344° |
| 2026-04-21 20:27 | -35.36840 | -58.41046 | 27580 ft | 448 kts | 345° |
| 2026-04-21 20:27 | -35.33752 | -58.41702 | 26748 ft | 449 kts | 345° |
| 2026-04-21 20:27 | -35.30671 | -58.42363 | 25980 ft | 447 kts | 345° |
| 2026-04-21 20:27 | -35.27649 | -58.43022 | 25336 ft | 442 kts | 344° |
| 2026-04-21 20:28 | -35.24661 | -58.43686 | 24615 ft | 435 kts | 344° |
| 2026-04-21 20:28 | -35.21744 | -58.44340 | 23945 ft | 418 kts | 344° |
| 2026-04-21 20:28 | -35.18905 | -58.44982 | 23257 ft | 404 kts | 343° |
| 2026-04-21 20:28 | -35.16193 | -58.45603 | 22601 ft | 391 kts | 343° |
| 2026-04-21 20:29 | -35.13562 | -58.46212 | 21949 ft | 379 kts | 343° |
| 2026-04-21 20:29 | -35.10981 | -58.46820 | 21337 ft | 385 kts | 343° |
| 2026-04-21 20:29 | -35.08317 | -58.47461 | 20660 ft | 394 kts | 343° |
| 2026-04-21 20:29 | -35.05654 | -58.48096 | 19974 ft | 384 kts | 344° |
| 2026-04-21 20:30 | -35.03045 | -58.48706 | 19293 ft | 370 kts | 344° |
| 2026-04-21 20:30 | -35.00557 | -58.49284 | 18636 ft | 356 kts | 344° |
| 2026-04-21 20:30 | -34.98173 | -58.49838 | 18053 ft | 350 kts | 344° |
| 2026-04-21 20:30 | -34.95834 | -58.50583 | 17249 ft | 348 kts | 334° |
| 2026-04-21 20:31 | -34.93704 | -58.51916 | 16023 ft | 348 kts | 325° |
| 2026-04-21 20:31 | -34.91709 | -58.53553 | 14836 ft | 348 kts | 322° |
| 2026-04-21 20:31 | -34.89737 | -58.55224 | 13848 ft | 344 kts | 323° |
| 2026-04-21 20:31 | -34.87776 | -58.56798 | 13310 ft | 337 kts | 324° |
| 2026-04-21 20:32 | -34.85833 | -58.58264 | 12940 ft | 326 kts | 326° |
| 2026-04-21 20:32 | -34.83892 | -58.59664 | 12676 ft | 313 kts | 326° |
| 2026-04-21 20:32 | -34.82042 | -58.60968 | 12469 ft | 300 kts | 327° |
| 2026-04-21 20:32 | -34.80277 | -58.62203 | 12169 ft | 288 kts | 326° |
| 2026-04-21 20:33 | -34.78556 | -58.63411 | 11782 ft | 275 kts | 326° |
| 2026-04-21 20:33 | -34.76954 | -58.64538 | 11400 ft | 265 kts | 326° |
| 2026-04-21 20:33 | -34.75369 | -58.65654 | 10993 ft | 257 kts | 327° |
| 2026-04-21 20:33 | -34.73840 | -58.66734 | 10485 ft | 254 kts | 326° |
| 2026-04-21 20:34 | -34.72317 | -58.67809 | 9943 ft | 253 kts | 327° |
| 2026-04-21 20:34 | -34.70803 | -58.68877 | 9386 ft | 252 kts | 327° |
| 2026-04-21 20:34 | -34.69291 | -58.69942 | 8816 ft | 252 kts | 327° |
| 2026-04-21 20:34 | -34.67775 | -58.71006 | 8255 ft | 252 kts | 328° |
| 2026-04-21 20:35 | -34.66266 | -58.72063 | 7751 ft | 249 kts | 328° |
| 2026-04-21 20:35 | -34.64770 | -58.73112 | 7412 ft | 240 kts | 328° |
| 2026-04-21 20:35 | -34.63357 | -58.74102 | 7139 ft | 230 kts | 328° |
| 2026-04-21 20:35 | -34.61954 | -58.75087 | 6872 ft | 240 kts | 328° |
| 2026-04-21 20:36 | -34.60491 | -58.76118 | 6539 ft | 249 kts | 328° |
| 2026-04-21 20:36 | -34.58933 | -58.77072 | 6208 ft | 252 kts | 339° |
| 2026-04-21 20:36 | -34.57192 | -58.77338 | 5936 ft | 255 kts | 6° |
| 2026-04-21 20:36 | -34.55496 | -58.76584 | 5698 ft | 262 kts | 30° |
| 2026-04-21 20:37 | -34.54118 | -58.75148 | 5462 ft | 266 kts | 46° |
| 2026-04-21 20:37 | -34.52853 | -58.73508 | 5208 ft | 262 kts | 32° |
| 2026-04-21 20:37 | -34.51208 | -58.72737 | 4991 ft | 251 kts | 358° |
| 2026-04-21 20:37 | -34.49536 | -58.73224 | 4986 ft | 248 kts | 332° |
| 2026-04-21 20:38 | -34.48027 | -58.74210 | 4971 ft | 249 kts | 329° |
| 2026-04-21 20:38 | -34.46616 | -58.75430 | 4983 ft | 247 kts | 316° |
| 2026-04-21 20:38 | -34.45266 | -58.76738 | 4949 ft | 250 kts | 333° |
| 2026-04-21 20:38 | -34.43594 | -58.77182 | 4972 ft | 252 kts | 2° |
| 2026-04-21 20:39 | -34.41870 | -58.76572 | 4973 ft | 261 kts | 27° |
| 2026-04-21 20:39 | -34.40458 | -58.75217 | 4970 ft | 265 kts | 47° |
| 2026-04-21 20:39 | -34.39590 | -58.73226 | 4968 ft | 272 kts | 77° |
| 2026-04-21 20:39 | -34.39658 | -58.70938 | 4972 ft | 276 kts | 107° |
| 2026-04-21 20:40 | -34.40522 | -58.68866 | 4977 ft | 277 kts | 123° |
| 2026-04-21 20:40 | -34.41604 | -58.66957 | 4972 ft | 276 kts | 125° |
| 2026-04-21 20:40 | -34.42705 | -58.65075 | 4966 ft | 270 kts | 124° |
| 2026-04-21 20:40 | -34.43762 | -58.63243 | 4710 ft | 264 kts | 124° |
| 2026-04-21 20:41 | -34.44801 | -58.61412 | 4275 ft | 262 kts | 124° |
| 2026-04-21 20:41 | -34.45818 | -58.59601 | 3770 ft | 263 kts | 124° |
| 2026-04-21 20:41 | -34.46861 | -58.57753 | 3152 ft | 268 kts | 124° |
| 2026-04-21 20:41 | -34.47912 | -58.55897 | 2605 ft | 268 kts | 124° |
| 2026-04-21 20:42 | -34.48940 | -58.54062 | 2229 ft | 264 kts | 124° |
| 2026-04-21 20:42 | -34.49973 | -58.52201 | 1847 ft | 264 kts | 124° |
| 2026-04-21 20:42 | -34.50990 | -58.50372 | 1386 ft | 262 kts | 125° |
| 2026-04-21 20:42 | -34.51975 | -58.48640 | 1101 ft | 233 kts | 125° |
| 2026-04-21 20:43 | -34.52810 | -58.47165 | 1102 ft | 192 kts | 125° |
| 2026-04-21 20:43 | -34.53520 | -58.45880 | 814 ft | 182 kts | 124° |
| 2026-04-21 20:43 | -34.54221 | -58.44602 | 422 ft | 178 kts | 124° |
| 2026-04-21 20:43 | -34.54895 | -58.43400 | 210 ft | 165 kts | 124° |
| 2026-04-21 20:44 | -34.55521 | -58.42291 | 43 ft | 151 kts | 124° |
| 2026-04-21 20:44 | -34.56062 | -58.41324 | 32 ft | 123 kts | 123° |
| 2026-04-21 20:44 | -34.56383 | -58.40736 | 30 ft | 39 kts | 107° |
| 2026-04-21 20:44 | -34.56370 | -58.40673 | 28 ft | 0 kts | 12° |